createdAt,value
2023-11-25T00:00:57.355Z,98604.34
2023-11-25T00:03:24.758Z,98602.72
2023-11-25T00:05:51.682Z,98595.47
2023-11-25T00:08:18.772Z,98600.06
2023-11-25T00:10:45.892Z,98609.72
2023-11-25T00:13:13.059Z,98615.97
2023-11-25T00:15:40.665Z,98609.72
2023-11-25T00:18:09.207Z,98613.00
2023-11-25T00:20:38.313Z,98631.38
2023-11-25T00:23:05.995Z,98646.47
2023-11-25T00:25:33.245Z,98665.53
2023-11-25T00:28:01.242Z,98670.91
2023-11-25T00:30:28.486Z,98662.25
2023-11-25T00:32:56.324Z,98640.56
2023-11-25T00:35:23.699Z,98632.84
2023-11-25T00:37:50.720Z,98619.56
2023-11-25T00:40:18.465Z,98619.34
2023-11-25T00:42:47.901Z,98632.94
2023-11-25T00:45:17.720Z,98636.91
2023-11-25T00:47:44.991Z,98626.06
2023-11-25T00:50:12.724Z,98606.69
2023-11-25T00:52:40.398Z,98623.59
2023-11-25T00:55:08.755Z,98628.03
2023-11-25T00:57:36.543Z,98637.13
2023-11-25T01:00:11.680Z,98633.34
2023-11-25T01:02:39.113Z,98615.47
2023-11-25T01:05:06.517Z,98614.53
2023-11-25T01:07:33.820Z,98621.59
2023-11-25T01:10:00.888Z,98625.22
2023-11-25T01:12:27.741Z,98619.59
2023-11-25T01:14:55.590Z,98620.31
2023-11-25T01:17:24.672Z,98615.72
2023-11-25T01:19:51.566Z,98613.44
2023-11-25T01:22:18.990Z,98617.22
2023-11-25T01:24:46.313Z,98618.53
2023-11-25T01:27:14.270Z,98603.16
2023-11-25T01:29:41.219Z,98601.16
2023-11-25T01:32:08.104Z,98592.16
2023-11-25T01:34:35.256Z,98577.75
2023-11-25T01:37:02.526Z,98584.56
2023-11-25T01:39:29.490Z,98581.81
2023-11-25T01:41:56.342Z,98590.47
2023-11-25T01:44:23.761Z,98575.72
2023-11-25T01:46:53.373Z,98558.31
2023-11-25T01:49:22.550Z,98552.69
2023-11-25T01:51:52.128Z,98562.84
2023-11-25T01:54:19.806Z,98564.13
2023-11-25T01:56:51.737Z,98571.38
2023-11-25T01:59:20.846Z,98557.72
2023-11-25T02:01:48.290Z,98564.28
2023-11-25T02:04:15.661Z,98567.69
2023-11-25T02:06:42.859Z,98574.84
2023-11-25T02:09:10.071Z,98572.03
2023-11-25T02:12:03.533Z,98572.66
2023-11-25T02:14:31.161Z,98569.41
2023-11-25T02:16:58.638Z,98584.84
2023-11-25T02:19:26.175Z,98590.41
2023-11-25T02:21:54.158Z,98596.63
2023-11-25T02:24:21.387Z,98605.47
2023-11-25T02:26:49.696Z,98607.13
2023-11-25T02:29:16.567Z,98607.50
2023-11-25T02:31:44.454Z,98610.16
2023-11-25T02:34:12.248Z,98604.91
2023-11-25T02:36:39.893Z,98595.69
2023-11-25T02:39:07.012Z,98600.31
2023-11-25T02:41:35.727Z,98606.69
2023-11-25T02:44:02.897Z,98610.81
2023-11-25T02:46:29.931Z,98618.00
2023-11-25T02:48:57.268Z,98614.41
2023-11-25T02:51:24.172Z,98606.88
2023-11-25T02:53:51.087Z,98598.69
2023-11-25T02:56:18.677Z,98611.44
2023-11-25T02:58:45.594Z,98601.94
2023-11-25T03:01:15.516Z,98603.41
2023-11-25T03:03:48.955Z,98611.44
2023-11-25T03:06:17.649Z,98618.31
2023-11-25T03:08:45.124Z,98619.66
2023-11-25T03:11:17.284Z,98626.69
2023-11-25T03:13:44.290Z,98634.06
2023-11-25T03:16:12.377Z,98629.47
2023-11-25T03:18:39.396Z,98631.28
2023-11-25T03:21:07.837Z,98636.34
2023-11-25T03:23:34.784Z,98632.75
2023-11-25T03:26:01.841Z,98634.06
2023-11-25T03:28:29.071Z,98637.31
2023-11-25T03:30:56.609Z,98632.75
2023-11-25T03:33:23.658Z,98623.44
2023-11-25T03:35:50.986Z,98617.03
2023-11-25T03:38:17.913Z,98616.03
2023-11-25T03:40:44.937Z,98618.84
2023-11-25T03:43:11.924Z,98612.78
2023-11-25T03:45:38.938Z,98604.91
2023-11-25T03:48:07.261Z,98599.69
2023-11-25T03:50:34.549Z,98594.63
2023-11-25T03:53:02.363Z,98606.91
2023-11-25T03:55:29.592Z,98602.66
2023-11-25T03:57:56.451Z,98598.56
2023-11-25T04:00:24.301Z,98592.69
2023-11-25T04:02:52.897Z,98593.50
2023-11-25T04:05:20.261Z,98601.53
2023-11-25T04:07:47.606Z,98596.44
2023-11-25T04:10:15.274Z,98593.38
2023-11-25T04:12:50.592Z,98586.78
2023-11-25T04:15:21.119Z,98580.25
2023-11-25T04:17:48.649Z,98576.19
2023-11-25T04:20:16.198Z,98585.00
2023-11-25T04:22:49.577Z,98587.31
2023-11-25T04:25:17.473Z,98588.13
2023-11-25T04:27:48.438Z,98587.13
2023-11-25T04:30:17.373Z,98590.25
2023-11-25T04:32:46.097Z,98588.78
2023-11-25T04:35:15.472Z,98590.91
2023-11-25T04:37:47.813Z,98595.66
2023-11-25T04:40:16.272Z,98581.75
2023-11-25T04:42:43.546Z,98580.78
2023-11-25T04:45:18.656Z,98575.03
2023-11-25T04:47:46.707Z,98577.81
2023-11-25T04:50:14.978Z,98574.72
2023-11-25T04:52:42.335Z,98562.13
2023-11-25T04:55:13.798Z,98564.75
2023-11-25T04:57:41.303Z,98558.84
2023-11-25T05:00:12.512Z,98567.34
2023-11-25T05:02:40.468Z,98560.63
2023-11-25T05:05:09.060Z,98560.59
2023-11-25T05:07:37.035Z,98567.31
2023-11-25T05:10:08.082Z,98569.25
2023-11-25T05:12:35.109Z,98577.41
2023-11-25T05:15:02.154Z,98579.72
2023-11-25T05:17:30.055Z,98589.84
2023-11-25T05:19:57.015Z,98591.13
2023-11-25T05:22:23.998Z,98594.75
2023-11-25T05:24:50.961Z,98597.34
2023-11-25T05:27:17.879Z,98604.28
2023-11-25T05:29:45.638Z,98602.38
2023-11-25T05:32:14.424Z,98612.38
2023-11-25T05:34:42.074Z,98601.50
2023-11-25T05:37:12.104Z,98597.50
2023-11-25T05:39:42.305Z,98599.63
2023-11-25T05:42:09.873Z,98599.69
2023-11-25T05:44:36.828Z,98603.34
2023-11-25T05:47:06.946Z,98610.38
2023-11-25T05:49:34.479Z,98617.91
2023-11-25T05:52:01.512Z,98607.44
2023-11-25T05:54:28.976Z,98619.81
2023-11-25T05:56:56.153Z,98614.75
2023-11-25T05:59:23.323Z,98612.75
2023-11-25T06:01:50.647Z,98612.56
2023-11-25T06:04:21.817Z,98626.38
2023-11-25T06:06:49.318Z,98631.03
2023-11-25T06:09:16.675Z,98642.44
2023-11-25T06:11:43.804Z,98650.06
2023-11-25T06:14:14.269Z,98653.41
2023-11-25T06:16:44.141Z,98646.94
2023-11-25T06:19:11.845Z,98646.47
2023-11-25T06:21:41.159Z,98645.50
2023-11-25T06:24:09.270Z,98648.31
2023-11-25T06:26:36.640Z,98643.75
2023-11-25T06:29:04.317Z,98641.13
2023-11-25T06:31:33.096Z,98639.91
2023-11-25T06:34:01.852Z,98639.59
2023-11-25T06:36:33.898Z,98629.66
2023-11-25T06:39:00.833Z,98639.50
2023-11-25T06:41:28.651Z,98645.22
2023-11-25T06:43:55.734Z,98643.41
2023-11-25T06:46:25.512Z,98645.59
2023-11-25T06:48:54.242Z,98634.34
2023-11-25T06:51:21.194Z,98635.16
2023-11-25T06:53:48.165Z,98631.56
2023-11-25T06:56:21.069Z,98616.56
2023-11-25T06:58:48.107Z,98623.13
2023-11-25T07:01:21.225Z,98617.91
2023-11-25T07:03:48.276Z,98624.94
2023-11-25T07:06:18.204Z,98631.66
2023-11-25T07:08:48.100Z,98631.03
2023-11-25T07:11:15.501Z,98636.63
2023-11-25T07:13:43.638Z,98640.50
2023-11-25T07:16:13.802Z,98638.88
2023-11-25T07:18:44.449Z,98643.75
2023-11-25T07:21:12.990Z,98643.28
2023-11-25T07:23:41.028Z,98636.56
2023-11-25T07:26:08.470Z,98638.06
2023-11-25T07:28:37.045Z,98636.97
2023-11-25T07:31:05.017Z,98644.78
2023-11-25T07:33:32.968Z,98636.31
2023-11-25T07:36:00.148Z,98635.97
2023-11-25T07:38:27.185Z,98637.16
2023-11-25T07:40:54.176Z,98645.16
2023-11-25T07:43:21.544Z,98647.63
2023-11-25T07:45:48.466Z,98654.69
2023-11-25T07:48:15.597Z,98654.06
2023-11-25T07:50:50.368Z,98648.84
2023-11-25T07:55:50.387Z,98639.34
2023-11-25T07:58:17.365Z,98641.66
2023-11-25T08:00:44.284Z,98640.00
2023-11-25T08:03:11.704Z,98634.44
2023-11-25T08:05:38.624Z,98646.22
2023-11-25T08:08:05.796Z,98649.97
2023-11-25T08:10:36.623Z,98641.97
2023-11-25T08:13:04.081Z,98647.22
2023-11-25T08:15:32.683Z,98656.06
2023-11-25T08:18:00.255Z,98647.69
2023-11-25T08:20:27.539Z,98643.59
2023-11-25T08:22:54.935Z,98655.03
2023-11-25T08:25:22.057Z,98649.28
2023-11-25T08:27:52.165Z,98663.19
2023-11-25T08:30:19.357Z,98662.53
2023-11-25T08:32:46.507Z,98675.63
2023-11-25T08:35:13.660Z,98673.00
2023-11-25T08:37:42.070Z,98677.09
2023-11-25T08:40:29.394Z,98682.50
2023-11-25T08:42:57.752Z,98688.59
2023-11-25T08:45:25.682Z,98687.28
2023-11-25T08:47:52.802Z,98689.59
2023-11-25T08:50:20.598Z,98681.53
2023-11-25T08:52:50.624Z,98691.06
2023-11-25T08:55:19.966Z,98675.84
2023-11-25T08:57:47.840Z,98670.09
2023-11-25T09:00:21.739Z,98660.44
2023-11-25T09:02:52.804Z,98663.16
2023-11-25T09:05:24.235Z,98655.78
2023-11-25T09:07:57.331Z,98661.97
2023-11-25T09:10:26.975Z,98662.91
2023-11-25T09:12:54.714Z,98662.25
2023-11-25T09:15:22.985Z,98676.00
2023-11-25T09:17:50.099Z,98670.91
2023-11-25T09:20:18.465Z,98671.25
2023-11-25T09:22:46.440Z,98661.44
2023-11-25T09:25:13.921Z,98660.28
2023-11-25T09:27:41.787Z,98651.91
2023-11-25T09:30:13.303Z,98655.22
2023-11-25T09:32:41.977Z,98649.47
2023-11-25T09:35:12.489Z,98643.38
2023-11-25T09:37:40.262Z,98650.94
2023-11-25T09:40:08.879Z,98649.94
2023-11-25T09:42:35.873Z,98647.59
2023-11-25T09:45:03.547Z,98645.31
2023-11-25T09:47:30.856Z,98648.25
2023-11-25T09:49:57.846Z,98639.22
2023-11-25T09:52:29.545Z,98632.47
2023-11-25T09:55:00.039Z,98628.03
2023-11-25T09:57:34.069Z,98628.81
2023-11-25T10:00:07.648Z,98620.91
2023-11-25T10:02:37.550Z,98626.06
2023-11-25T10:05:06.350Z,98615.81
2023-11-25T10:07:33.906Z,98616.50
2023-11-25T10:10:02.739Z,98606.88
2023-11-25T10:12:31.285Z,98616.19
2023-11-25T10:15:00.780Z,98613.72
2023-11-25T10:17:28.344Z,98615.56
2023-11-25T10:20:20.713Z,98613.09
2023-11-25T10:22:49.692Z,98618.69
2023-11-25T10:25:21.245Z,98600.09
2023-11-25T10:27:49.331Z,98617.34
2023-11-25T10:30:16.416Z,98592.84
2023-11-25T10:32:44.070Z,98590.97
2023-11-25T10:35:11.301Z,98579.53
2023-11-25T10:37:42.421Z,98578.28
2023-11-25T10:40:18.266Z,98568.16
2023-11-25T10:42:46.896Z,98562.72
2023-11-25T10:45:18.253Z,98549.94
2023-11-25T10:47:45.854Z,98564.88
2023-11-25T10:50:14.889Z,98549.13
2023-11-25T10:52:44.949Z,98561.19
2023-11-25T10:55:12.200Z,98536.94
2023-11-25T10:57:39.509Z,98551.41
2023-11-25T11:00:12.924Z,98551.66
2023-11-25T11:02:52.106Z,98543.56
2023-11-25T11:05:33.986Z,98533.34
2023-11-25T11:08:24.144Z,98522.19
2023-11-25T11:11:07.056Z,98533.41
2023-11-25T11:14:16.230Z,98537.94
2023-11-25T11:16:49.418Z,98534.84
2023-11-25T11:19:20.042Z,98537.03
2023-11-25T11:21:52.845Z,98532.84
2023-11-25T11:24:25.066Z,98532.16
2023-11-25T11:27:16.005Z,98524.09
2023-11-25T11:29:50.698Z,98527.50
2023-11-25T11:32:22.982Z,98525.88
2023-11-25T11:34:50.692Z,98532.31
2023-11-25T11:37:18.762Z,98527.38
2023-11-25T11:40:01.152Z,98542.88
2023-11-25T11:42:40.949Z,98528.97
2023-11-25T11:45:17.422Z,98540.03
2023-11-25T11:47:51.378Z,98542.00
2023-11-25T11:50:20.496Z,98525.69
2023-11-25T11:52:56.401Z,98518.72
2023-11-25T11:55:38.048Z,98529.56
2023-11-25T11:58:15.606Z,98516.06
2023-11-25T12:00:53.811Z,98523.75
2023-11-25T12:03:21.576Z,98529.84
2023-11-25T12:05:48.621Z,98534.13
2023-11-25T12:08:15.939Z,98537.00
2023-11-25T12:10:43.132Z,98550.63
2023-11-25T12:13:12.396Z,98539.19
2023-11-25T12:15:40.327Z,98533.25
2023-11-25T12:18:07.559Z,98524.47
2023-11-25T12:20:35.304Z,98530.06
2023-11-25T12:23:10.518Z,98522.66
2023-11-25T12:25:38.390Z,98546.19
2023-11-25T12:28:12.345Z,98541.66
2023-11-25T12:30:41.467Z,98540.88
2023-11-25T12:33:09.942Z,98550.56
2023-11-25T12:35:46.668Z,98547.66
2023-11-25T12:38:16.527Z,98536.22
2023-11-25T12:40:47.787Z,98550.91
2023-11-25T12:43:15.658Z,98547.81
2023-11-25T12:45:48.363Z,98546.69
2023-11-25T12:48:29.714Z,98539.59
2023-11-25T12:51:09.047Z,98536.88
2023-11-25T12:53:36.885Z,98531.44
2023-11-25T12:56:04.651Z,98529.50
2023-11-25T12:58:32.644Z,98548.72
2023-11-25T13:00:59.978Z,98535.38
2023-11-25T13:03:34.483Z,98545.09
2023-11-25T13:06:11.202Z,98547.53
2023-11-25T13:08:41.431Z,98551.94
2023-11-25T13:11:10.410Z,98550.09
2023-11-25T13:13:38.209Z,98557.78
2023-11-25T13:16:06.591Z,98570.19
2023-11-25T13:18:36.353Z,98558.72
2023-11-25T13:21:06.966Z,98571.41
2023-11-25T13:23:35.033Z,98561.88
2023-11-25T13:26:02.028Z,98565.16
2023-11-25T13:28:29.134Z,98572.03
2023-11-25T13:30:56.038Z,98578.81
2023-11-25T13:33:23.524Z,98567.38
2023-11-25T13:35:50.528Z,98568.34
2023-11-25T13:38:17.949Z,98569.13
2023-11-25T13:40:45.284Z,98564.09
2023-11-25T13:43:14.838Z,98559.66
2023-11-25T13:45:44.595Z,98568.88
2023-11-25T13:48:13.437Z,98569.22
2023-11-25T13:50:41.062Z,98575.09
2023-11-25T13:53:08.428Z,98571.63
2023-11-25T13:55:39.257Z,98568.44
2023-11-25T13:58:08.332Z,98588.47
2023-11-25T14:00:35.832Z,98574.69
2023-11-25T14:03:03.125Z,98574.56
2023-11-25T14:05:32.581Z,98570.31
2023-11-25T14:07:59.495Z,98570.31
2023-11-25T14:10:26.497Z,98560.13
2023-11-25T14:12:53.633Z,98559.97
2023-11-25T14:15:20.597Z,98567.84
2023-11-25T14:17:48.296Z,98577.84
2023-11-25T14:20:18.196Z,98586.88
2023-11-25T14:22:45.779Z,98590.47
2023-11-25T14:25:32.872Z,98604.91
2023-11-25T14:28:03.407Z,98595.38
2023-11-25T14:30:34.911Z,98594.09
2023-11-25T14:33:05.758Z,98577.22
2023-11-25T14:35:38.199Z,98571.19
2023-11-25T14:38:07.559Z,98584.59
2023-11-25T14:40:40.511Z,98588.56
2023-11-25T14:43:07.845Z,98584.13
2023-11-25T14:45:36.059Z,98582.00
2023-11-25T14:48:04.628Z,98593.47
2023-11-25T14:50:31.945Z,98595.44
2023-11-25T14:53:01.208Z,98596.91
2023-11-25T14:55:28.209Z,98601.34
2023-11-25T14:57:55.187Z,98598.22
2023-11-25T15:00:24.206Z,98598.53
2023-11-25T15:02:51.276Z,98604.09
2023-11-25T15:05:18.358Z,98599.84
2023-11-25T15:07:47.619Z,98601.00
2023-11-25T15:10:15.042Z,98603.97
2023-11-25T15:12:41.972Z,98612.78
2023-11-25T15:15:10.096Z,98607.41
2023-11-25T15:17:37.176Z,98609.53
2023-11-25T15:20:05.663Z,98611.34
2023-11-25T15:22:33.105Z,98605.94
2023-11-25T15:25:00.579Z,98618.03
2023-11-25T15:27:27.924Z,98611.00
2023-11-25T15:30:01.537Z,98614.78
2023-11-25T15:32:28.769Z,98622.63
2023-11-25T15:34:55.825Z,98622.00
2023-11-25T15:37:23.010Z,98630.34
2023-11-25T15:39:50.213Z,98622.19
2023-11-25T15:42:17.358Z,98626.28
2023-11-25T15:44:44.307Z,98619.38
2023-11-25T15:47:11.686Z,98635.09
2023-11-25T15:49:38.830Z,98638.22
2023-11-25T15:52:06.430Z,98653.09
2023-11-25T15:54:33.946Z,98648.19
2023-11-25T15:57:01.003Z,98644.28
2023-11-25T15:59:30.921Z,98646.88
2023-11-25T16:01:58.883Z,98653.41
2023-11-25T16:04:26.283Z,98649.19
2023-11-25T16:06:55.284Z,98673.72
2023-11-25T16:09:22.534Z,98677.47
2023-11-25T16:11:50.137Z,98686.16
2023-11-25T16:14:17.178Z,98686.28
2023-11-25T16:16:44.425Z,98694.81
2023-11-25T16:19:11.769Z,98706.75
2023-11-25T16:21:39.447Z,98702.97
2023-11-25T16:24:08.149Z,98707.72
2023-11-25T16:26:35.721Z,98715.91
2023-11-25T16:29:03.324Z,98719.38
2023-11-25T16:31:30.930Z,98716.09
2023-11-25T16:33:57.877Z,98716.09
2023-11-25T16:36:24.766Z,98726.56
2023-11-25T16:38:51.641Z,98734.56
2023-11-25T16:41:22.622Z,98735.72
2023-11-25T16:43:49.689Z,98742.28
2023-11-25T16:46:18.642Z,98745.72
2023-11-25T16:48:53.171Z,98751.78
2023-11-25T16:51:25.520Z,98749.34
2023-11-25T16:53:52.775Z,98741.81
2023-11-25T16:56:19.813Z,98743.09
2023-11-25T16:58:47.480Z,98750.47
2023-11-25T17:01:14.703Z,98741.16
2023-11-25T17:03:42.105Z,98737.53
2023-11-25T17:06:11.441Z,98736.38
2023-11-25T17:08:38.364Z,98736.06
2023-11-25T17:11:05.814Z,98733.13
2023-11-25T17:13:32.784Z,98736.53
2023-11-25T17:16:01.022Z,98735.88
2023-11-25T17:18:27.938Z,98737.16
2023-11-25T17:20:54.894Z,98739.78
2023-11-25T17:23:22.309Z,98744.88
2023-11-25T17:25:49.319Z,98747.00
2023-11-25T17:28:16.247Z,98742.41
2023-11-25T17:30:43.396Z,98741.09
2023-11-25T17:33:14.230Z,98751.22
2023-11-25T17:35:41.252Z,98757.75
2023-11-25T17:38:08.541Z,98744.31
2023-11-25T17:40:36.031Z,98755.59
2023-11-25T17:43:03.354Z,98762.59
2023-11-25T17:45:30.338Z,98765.38
2023-11-25T17:47:57.337Z,98760.66
2023-11-25T17:50:25.762Z,98765.91
2023-11-25T17:53:03.917Z,98764.41
2023-11-25T17:55:36.980Z,98765.91
2023-11-25T17:58:03.889Z,98777.16
2023-11-25T18:00:31.863Z,98765.22
2023-11-25T18:02:59.317Z,98766.34
2023-11-25T18:05:26.316Z,98776.91
2023-11-25T18:07:55.224Z,98767.09
2023-11-25T18:10:22.605Z,98770.97
2023-11-25T18:12:49.686Z,98791.53
2023-11-25T18:15:16.697Z,98776.50
2023-11-25T18:17:44.132Z,98786.00
2023-11-25T18:20:12.600Z,98786.88
2023-11-25T18:22:42.440Z,98786.53
2023-11-25T18:25:12.768Z,98793.25
2023-11-25T18:27:40.398Z,98799.19
2023-11-25T18:30:09.351Z,98800.81
2023-11-25T18:32:37.203Z,98810.31
2023-11-25T18:35:05.649Z,98814.88
2023-11-25T18:37:32.678Z,98814.25
2023-11-25T18:39:59.541Z,98815.06
2023-11-25T18:42:27.445Z,98825.69
2023-11-25T18:44:54.647Z,98829.09
2023-11-25T18:47:21.570Z,98835.03
2023-11-25T18:49:48.536Z,98843.72
2023-11-25T18:52:15.564Z,98854.75
2023-11-25T18:54:45.228Z,98863.09
2023-11-25T18:57:12.769Z,98856.75
2023-11-25T18:59:39.741Z,98859.16
2023-11-25T19:02:06.761Z,98870.88
2023-11-25T19:04:33.935Z,98878.06
2023-11-25T19:07:01.289Z,98875.22
2023-11-25T19:09:28.235Z,98882.81
2023-11-25T19:11:55.578Z,98890.53
2023-11-25T19:14:22.483Z,98890.91
2023-11-25T19:16:49.517Z,98894.75
2023-11-25T19:19:16.583Z,98890.56
2023-11-25T19:21:43.575Z,98900.44
2023-11-25T19:24:11.065Z,98899.47
2023-11-25T19:26:44.523Z,98895.75
2023-11-25T19:29:11.874Z,98895.28
2023-11-25T19:31:38.833Z,98905.09
2023-11-25T19:34:06.184Z,98904.84
2023-11-25T19:36:33.961Z,98908.94
2023-11-25T19:39:00.862Z,98907.41
2023-11-25T19:41:27.808Z,98913.97
2023-11-25T19:43:55.494Z,98915.44
2023-11-25T19:46:22.391Z,98918.22
2023-11-25T19:48:49.292Z,98918.13
2023-11-25T19:51:16.221Z,98929.88
2023-11-25T19:53:50.523Z,98934.00
2023-11-25T19:56:20.444Z,98931.66
2023-11-25T19:58:47.666Z,98935.97
2023-11-25T20:01:15.420Z,98937.34
2023-11-25T20:03:42.858Z,98935.69
2023-11-25T20:06:09.903Z,98938.47
2023-11-25T20:08:36.888Z,98939.28
2023-11-25T20:11:04.820Z,98944.44
2023-11-25T20:13:31.987Z,98941.13
2023-11-25T20:15:59.737Z,98934.59
2023-11-25T20:18:26.802Z,98958.69
2023-11-25T20:20:53.952Z,98954.75
2023-11-25T20:23:21.699Z,98954.66
2023-11-25T20:25:49.073Z,98950.09
2023-11-25T20:28:16.294Z,98956.91
2023-11-25T20:30:44.465Z,98959.66
2023-11-25T20:33:11.528Z,98957.50
2023-11-25T20:35:38.534Z,98960.09
2023-11-25T20:38:05.617Z,98965.63
2023-11-25T20:40:32.824Z,98961.38
2023-11-25T20:43:00.108Z,98966.91
2023-11-25T20:45:26.982Z,98968.00
2023-11-25T20:47:54.045Z,98964.56
2023-11-25T20:50:21.095Z,98974.94
2023-11-25T20:52:48.648Z,98957.16
2023-11-25T20:55:16.362Z,98951.66
2023-11-25T20:57:43.472Z,98961.06
2023-11-25T21:00:12.194Z,98957.22
2023-11-25T21:02:40.517Z,98962.06
2023-11-25T21:05:08.444Z,98960.56
2023-11-25T21:07:35.557Z,98966.91
2023-11-25T21:10:02.406Z,98976.25
2023-11-25T21:12:29.484Z,98983.13
2023-11-25T21:14:56.425Z,98975.44
2023-11-25T21:17:23.760Z,98973.50
2023-11-25T21:19:52.214Z,98981.19
2023-11-25T21:22:22.043Z,98981.47
2023-11-25T21:24:49.198Z,98985.63
2023-11-25T21:27:16.124Z,98980.69
2023-11-25T21:29:45.486Z,98979.88
2023-11-25T21:32:15.020Z,98976.34
2023-11-25T21:34:42.167Z,98974.16
2023-11-25T21:37:09.135Z,98975.00
2023-11-25T21:39:36.007Z,98978.00
2023-11-25T21:42:02.961Z,98978.44
2023-11-25T21:44:31.530Z,98979.97
2023-11-25T21:46:59.880Z,98980.91
2023-11-25T21:49:30.800Z,98982.44
2023-11-25T21:51:57.862Z,98983.13
2023-11-25T21:54:24.953Z,98984.91
2023-11-25T21:56:51.871Z,98991.66
2023-11-25T21:59:21.821Z,98987.25
2023-11-25T22:01:49.400Z,98981.09
2023-11-25T22:04:22.675Z,98988.22
2023-11-25T22:06:50.489Z,98987.81
2023-11-25T22:09:18.229Z,98984.09
2023-11-25T22:11:46.403Z,98980.94
2023-11-25T22:14:13.718Z,98983.00
2023-11-25T22:16:40.675Z,98986.84
2023-11-25T22:19:07.564Z,98994.66
2023-11-25T22:21:35.412Z,98998.63
2023-11-25T22:24:03.330Z,98994.50
2023-11-25T22:26:39.069Z,98999.84
2023-11-25T22:29:06.488Z,98992.00
2023-11-25T22:31:36.849Z,99001.59
2023-11-25T22:34:05.575Z,98999.41
2023-11-25T22:36:36.313Z,98988.31
2023-11-25T22:39:03.446Z,98993.09
2023-11-25T22:41:32.262Z,98989.78
2023-11-25T22:43:59.443Z,98988.41
2023-11-25T22:46:26.977Z,98990.31
2023-11-25T22:48:56.987Z,98990.59
2023-11-25T22:51:25.577Z,98984.13
2023-11-25T22:53:53.990Z,98988.38
2023-11-25T22:56:22.513Z,98999.06
2023-11-25T22:58:49.498Z,98990.69
2023-11-25T23:01:28.704Z,98990.94
2023-11-25T23:03:56.702Z,98990.09
2023-11-25T23:06:24.855Z,98996.41
2023-11-25T23:08:53.958Z,98993.25
2023-11-25T23:11:21.200Z,98990.78
2023-11-25T23:13:50.443Z,98992.94
2023-11-25T23:16:18.818Z,98988.00
2023-11-25T23:18:45.779Z,98995.53
2023-11-25T23:21:12.666Z,98994.94
2023-11-25T23:23:46.163Z,98988.38
2023-11-25T23:26:17.037Z,98992.06
2023-11-25T23:28:44.626Z,98989.84
2023-11-25T23:31:11.641Z,98979.13
2023-11-25T23:33:40.175Z,98983.06
2023-11-25T23:36:11.287Z,98991.69
2023-11-25T23:38:38.377Z,98990.88
2023-11-25T23:41:06.577Z,98993.47
2023-11-25T23:43:34.085Z,98999.06
2023-11-25T23:46:04.920Z,99011.22
2023-11-25T23:48:32.379Z,98997.34
2023-11-25T23:51:06.392Z,98993.81
2023-11-25T23:53:33.400Z,99003.78
2023-11-25T23:56:00.785Z,98997.41
2023-11-25T23:58:30.782Z,98998.38
